Time;durP1;ratioP1;P1;durP2;ratioP2;P2;SDS_P1;SDS_P2;PMS_P1;PMS_P2;Temp;Humidity;BMP_temperature;BMP_pressure;BME280_temperature;BME280_humidity;BME280_pressure;Samples;Min_cycle;Max_cycle;Signal;HPM_P1;HPM_P2
2023/02/07 00:01:25;;;;;;;21.55;12.63;;;0.80;81.20;;;;;;5031663;28;20052;-56
2023/02/07 00:03:51;;;;;;;23.42;13.25;;;0.70;81.00;;;;;;5033593;28;20152;-59
2023/02/07 00:06:26;;;;;;;22.27;12.90;;;0.70;80.90;;;;;;5036201;28;20564;-58
2023/02/07 00:08:52;;;;;;;20.35;13.38;;;0.60;80.70;;;;;;5036705;28;20111;-57
2023/02/07 00:11:19;;;;;;;21.85;13.45;;;0.60;80.90;;;;;;5033498;28;20036;-58
2023/02/07 00:13:47;;;;;;;24.60;14.02;;;0.50;80.80;;;;;;5032747;28;20076;-59
2023/02/07 00:16:13;;;;;;;22.73;13.18;;;0.50;80.90;;;;;;5034330;28;20033;-60
2023/02/07 00:18:39;;;;;;;23.90;13.65;;;0.40;80.90;;;;;;5033937;28;20360;-59
2023/02/07 00:21:16;;;;;;;25.48;13.88;;;0.40;81.00;;;;;;5035556;28;20539;-60
2023/02/07 00:23:43;;;;;;;24.10;14.07;;;0.30;81.00;;;;;;5036613;28;20394;-58
2023/02/07 00:26:10;;;;;;;23.08;14.45;;;0.30;81.10;;;;;;5035590;28;20068;-59
2023/02/07 00:28:36;;;;;;;24.83;13.90;;;0.20;81.00;;;;;;5036347;28;20102;-60
2023/02/07 00:31:07;;;;;;;24.45;14.80;;;0.20;81.10;;;;;;5037411;28;20350;-58
2023/02/07 00:33:35;;;;;;;23.67;13.90;;;0.20;81.10;;;;;;5037188;28;20041;-58
2023/02/07 00:36:04;;;;;;;24.13;14.77;;;0.10;81.10;;;;;;5037109;28;20159;-58
2023/02/07 00:38:30;;;;;;;24.42;14.77;;;0.10;81.30;;;;;;5033882;28;20087;-60
2023/02/07 00:40:56;;;;;;;26.55;15.40;;;0.00;81.50;;;;;;5032850;28;20641;-58
2023/02/07 00:43:21;;;;;;;24.20;14.52;;;0.00;81.90;;;;;;5034620;28;20132;-59
2023/02/07 00:45:47;;;;;;;28.65;15.90;;;0.00;82.20;;;;;;5032180;28;20128;-56
2023/02/07 00:48:13;;;;;;;25.92;14.68;;;0.00;82.50;;;;;;5031657;28;20619;-58
2023/02/07 00:50:39;;;;;;;28.55;16.05;;;0.00;82.50;;;;;;5032614;28;20036;-59
2023/02/07 00:53:04;;;;;;;26.20;15.35;;;0.00;82.70;;;;;;5032159;28;20037;-60
2023/02/07 00:55:30;;;;;;;26.70;15.45;;;0.00;82.80;;;;;;5031794;28;20096;-58
2023/02/07 00:57:56;;;;;;;25.10;15.35;;;0.00;82.80;;;;;;5029801;28;20064;-56
2023/02/07 01:00:21;;;;;;;26.10;15.95;;;0.00;82.80;;;;;;5033076;28;20120;-56
2023/02/07 01:02:47;;;;;;;28.45;15.93;;;0.00;82.80;;;;;;5032157;28;20048;-59
2023/02/07 01:05:13;;;;;;;29.15;16.38;;;0.00;82.70;;;;;;5034356;28;20378;-58
2023/02/07 01:07:38;;;;;;;27.80;15.57;;;0.00;82.70;;;;;;5032759;28;20033;-59
2023/02/07 01:10:04;;;;;;;29.98;16.38;;;-0.10;82.70;;;;;;5032150;28;20033;-57
2023/02/07 01:12:30;;;;;;;26.88;15.68;;;-0.10;82.80;;;;;;5031931;28;20320;-57
2023/02/07 01:14:55;;;;;;;26.15;15.68;;;-0.10;82.90;;;;;;5031882;28;20132;-58
2023/02/07 01:17:21;;;;;;;28.25;16.00;;;-0.10;83.00;;;;;;5032315;28;20441;-59
2023/02/07 01:19:46;;;;;;;27.42;15.68;;;-0.10;83.10;;;;;;5032510;28;20060;-58
2023/02/07 01:22:12;;;;;;;24.50;14.93;;;-0.10;83.20;;;;;;5036819;28;20033;-57
2023/02/07 01:24:37;;;;;;;25.65;15.40;;;-0.10;83.10;;;;;;5035963;28;20436;-59
2023/02/07 01:27:03;;;;;;;27.00;15.32;;;-0.10;83.20;;;;;;5036090;28;20059;-59
2023/02/07 01:29:29;;;;;;;27.65;15.32;;;-0.20;83.00;;;;;;5035872;28;20079;-60
2023/02/07 01:31:54;;;;;;;23.35;14.25;;;-0.20;82.80;;;;;;5035365;28;20084;-58
2023/02/07 01:34:20;;;;;;;23.52;14.75;;;-0.20;83.00;;;;;;5035694;28;20055;-60
2023/02/07 01:36:45;;;;;;;25.67;15.43;;;-0.20;83.00;;;;;;5034723;28;21571;-59
2023/02/07 01:39:11;;;;;;;28.17;15.23;;;-0.30;82.90;;;;;;5033994;28;20120;-58
2023/02/07 01:41:36;;;;;;;25.15;15.13;;;-0.30;83.00;;;;;;5030504;28;20650;-59
2023/02/07 01:44:02;;;;;;;27.13;15.63;;;-0.30;83.20;;;;;;5033376;28;20040;-58
2023/02/07 01:46:29;;;;;;;26.63;15.18;;;-0.30;83.10;;;;;;5030826;28;20060;-58
2023/02/07 01:48:58;;;;;;;24.10;14.68;;;-0.30;83.00;;;;;;5031891;28;20033;-57
2023/02/07 01:51:25;;;;;;;26.60;14.90;;;-0.30;83.00;;;;;;5033387;28;20107;-58
2023/02/07 01:53:52;;;;;;;24.95;14.85;;;-0.30;83.00;;;;;;5032359;28;20136;-58
2023/02/07 01:56:18;;;;;;;25.55;15.32;;;-0.30;83.00;;;;;;5029988;28;20033;-58
2023/02/07 01:58:44;;;;;;;27.67;15.48;;;-0.30;83.00;;;;;;5031311;28;20705;-58
2023/02/07 02:01:19;;;;;;;23.17;14.65;;;-0.30;82.90;;;;;;5027886;28;20104;-57
2023/02/07 02:03:49;;;;;;;25.75;14.75;;;-0.30;82.70;;;;;;5031815;28;20033;-59
2023/02/07 02:06:16;;;;;;;28.80;15.38;;;-0.40;82.50;;;;;;5031107;28;20034;-59
2023/02/07 02:08:42;;;;;;;26.13;15.10;;;-0.40;82.50;;;;;;5031859;28;20533;-57
2023/02/07 02:11:16;;;;;;;26.50;15.15;;;-0.50;82.40;;;;;;5028896;28;20097;-58
2023/02/07 02:13:46;;;;;;;;;;;-0.50;82.50;;;;;;5037181;28;20055;-59
2023/02/07 02:16:17;;;;;;;26.88;14.90;;;-0.50;83.50;;;;;;5034474;28;20032;-58
2023/02/07 02:18:58;;;;;;;28.15;14.95;;;-0.60;82.30;;;;;;5036151;28;20064;-58
2023/02/07 02:21:46;;;;;;;28.50;15.35;;;-0.60;82.30;;;;;;5037584;28;20420;-59
2023/02/07 02:24:15;;;;;;;27.15;15.07;;;-0.70;82.20;;;;;;5037287;28;20408;-56
2023/02/07 02:27:05;;;;;;;30.05;15.68;;;-0.70;82.20;;;;;;5038918;28;20417;-59
2023/02/07 02:29:52;;;;;;;29.75;16.25;;;-0.80;82.30;;;;;;5039232;28;20140;-60
2023/02/07 02:32:41;;;;;;;26.15;14.88;;;-0.80;82.10;;;;;;5039296;28;20021;-60
2023/02/07 02:35:11;;;;;;;26.25;15.27;;;-0.90;82.10;;;;;;5038114;28;20033;-59
2023/02/07 02:37:55;;;;;;;27.52;15.23;;;-0.90;82.10;;;;;;5040163;28;20033;-58
2023/02/07 02:40:51;;;;;;;28.48;15.88;;;-1.00;82.00;;;;;;5038856;28;20472;-59
2023/02/07 02:43:25;;;;;;;27.55;16.17;;;-1.00;82.90;;;;;;5035405;28;20043;-59
2023/02/07 02:45:58;;;;;;;28.50;15.75;;;-1.10;82.00;;;;;;5033640;28;20053;-59
2023/02/07 02:48:26;;;;;;;25.92;14.80;;;-1.10;82.00;;;;;;5035160;28;20088;-60
2023/02/07 02:50:53;;;;;;;29.08;15.82;;;-1.10;82.00;;;;;;5037830;28;20034;-60
2023/02/07 02:53:19;;;;;;;28.52;15.27;;;-1.10;82.00;;;;;;5037629;28;20127;-57
2023/02/07 02:56:10;;;;;;;29.48;15.73;;;-1.10;82.00;;;;;;5032759;28;20167;-59
2023/02/07 02:59:04;;;;;;;27.52;15.70;;;-1.10;81.80;;;;;;5036126;28;20041;-58
2023/02/07 03:01:58;;;;;;;29.17;16.33;;;-1.20;81.60;;;;;;5033939;28;20258;-58
2023/02/07 03:04:42;;;;;;;30.63;16.35;;;-1.20;81.50;;;;;;5035048;28;20307;-60
2023/02/07 03:07:26;;;;;;;27.80;17.40;;;-1.20;81.60;;;;;;5032766;28;20029;-59
2023/02/07 03:10:04;;;;;;;29.65;16.83;;;-1.30;81.40;;;;;;5032972;28;20579;-57
2023/02/07 03:12:44;;;;;;;34.38;17.95;;;-1.30;81.80;;;;;;5027325;28;20042;-58
2023/02/07 03:15:13;;;;;;;29.88;17.83;;;-1.30;82.00;;;;;;5033332;28;20083;-60
2023/02/07 03:18:01;;;;;;;34.20;18.85;;;-1.30;82.10;;;;;;5035381;28;20409;-58
2023/02/07 03:20:48;;;;;;;34.95;18.05;;;-1.40;82.50;;;;;;5037482;28;20048;-58
2023/02/07 03:23:16;;;;;;;29.45;18.08;;;-1.40;82.60;;;;;;5038306;28;20366;-58
2023/02/07 03:25:44;;;;;;;30.30;18.05;;;-1.40;82.70;;;;;;5038010;28;20030;-59
2023/02/07 03:28:13;;;;;;;30.45;17.92;;;-1.40;82.80;;;;;;5038145;28;20051;-58
2023/02/07 03:30:41;;;;;;;31.73;19.00;;;-1.40;82.90;;;;;;5036835;28;20493;-58
2023/02/07 03:33:12;;;;;;;31.45;18.38;;;-1.40;83.20;;;;;;5038872;28;20051;-59
2023/02/07 03:36:04;;;;;;;32.20;18.90;;;-1.40;83.20;;;;;;5037599;28;20037;-59
2023/02/07 03:38:31;;;;;;;33.45;19.05;;;-1.40;83.20;;;;;;5036586;28;20401;-58
2023/02/07 03:41:01;;;;;;;31.15;18.63;;;-1.40;83.10;;;;;;5035353;28;20028;-59
2023/02/07 03:43:32;;;;;;;33.58;19.17;;;-1.50;83.00;;;;;;5034413;28;20039;-59
2023/02/07 03:45:58;;;;;;;33.05;18.67;;;-1.50;83.10;;;;;;5033480;28;20056;-59
2023/02/07 03:48:24;;;;;;;32.15;17.85;;;-1.50;83.00;;;;;;5033803;28;20056;-58
2023/02/07 03:50:51;;;;;;;30.15;17.67;;;-1.50;83.10;;;;;;5032946;28;20033;-58
2023/02/07 03:53:17;;;;;;;28.75;16.55;;;-1.50;83.20;;;;;;5034384;28;20037;-58
2023/02/07 03:55:43;;;;;;;30.55;17.75;;;-1.50;83.20;;;;;;5031027;28;20040;-59
2023/02/07 03:58:09;;;;;;;31.33;17.45;;;-1.50;83.10;;;;;;5032807;28;20029;-58
2023/02/07 04:00:35;;;;;;;30.48;17.75;;;-1.50;83.00;;;;;;5034128;28;20033;-59
2023/02/07 04:03:02;;;;;;;31.55;17.85;;;-1.50;82.90;;;;;;5035685;28;20766;-57
2023/02/07 04:05:27;;;;;;;30.17;17.63;;;-1.50;82.80;;;;;;5033918;28;20069;-59
2023/02/07 04:07:53;;;;;;;28.05;16.48;;;-1.50;82.80;;;;;;5030925;28;20139;-58
2023/02/07 04:10:18;;;;;;;27.45;16.48;;;-1.40;82.60;;;;;;5031086;28;20037;-58
2023/02/07 04:12:44;;;;;;;27.30;17.15;;;-1.50;82.50;;;;;;5028584;28;20090;-58
2023/02/07 04:15:11;;;;;;;28.52;16.23;;;-1.50;82.30;;;;;;5033498;28;20440;-60
2023/02/07 04:17:37;;;;;;;26.40;16.70;;;-1.50;82.10;;;;;;5033964;28;20397;-59
2023/02/07 04:20:04;;;;;;;27.40;16.25;;;-1.50;82.00;;;;;;5034493;28;20029;-59
2023/02/07 04:22:30;;;;;;;27.23;16.23;;;-1.50;81.80;;;;;;5034095;28;20432;-56
2023/02/07 04:24:56;;;;;;;28.52;16.88;;;-1.40;81.70;;;;;;5034516;28;20036;-59
2023/02/07 04:27:22;;;;;;;29.35;16.58;;;-1.50;81.50;;;;;;5031097;28;20033;-58
2023/02/07 04:29:47;;;;;;;26.80;16.50;;;-1.50;82.10;;;;;;5034463;28;20039;-60
2023/02/07 04:32:13;;;;;;;26.98;16.40;;;-1.50;81.10;;;;;;5034652;28;20022;-55
2023/02/07 04:34:38;;;;;;;27.60;16.83;;;-1.60;81.00;;;;;;5035865;28;20432;-58
2023/02/07 04:37:04;;;;;;;31.10;16.77;;;-1.60;80.90;;;;;;5036678;28;20088;-59
2023/02/07 04:39:30;;;;;;;26.73;17.00;;;-1.60;80.70;;;;;;5036729;28;20033;-59
2023/02/07 04:41:55;;;;;;;28.05;16.67;;;-1.70;80.80;;;;;;5035051;28;20038;-59
2023/02/07 04:44:21;;;;;;;26.85;16.55;;;-1.70;80.90;;;;;;5037376;28;20382;-58
2023/02/07 04:46:46;;;;;;;27.33;16.67;;;-1.80;80.80;;;;;;5033731;28;20088;-57
2023/02/07 04:49:12;;;;;;;26.73;15.93;;;-1.80;80.90;;;;;;5030883;28;20104;-58
2023/02/07 04:51:38;;;;;;;26.98;16.45;;;-1.80;80.90;;;;;;5031297;28;20051;-59
2023/02/07 04:54:03;;;;;;;27.23;16.02;;;-1.80;80.90;;;;;;5030499;28;20041;-59
2023/02/07 04:56:29;;;;;;;28.85;16.75;;;-1.90;80.80;;;;;;5028275;28;20041;-59
2023/02/07 04:58:54;;;;;;;26.38;15.85;;;-1.90;80.90;;;;;;5035373;28;20037;-60
2023/02/07 05:01:20;;;;;;;28.85;16.58;;;-1.90;80.70;;;;;;5036500;28;20116;-59
2023/02/07 05:03:46;;;;;;;26.75;15.88;;;-1.90;80.60;;;;;;5034399;28;20037;-56
2023/02/07 05:06:12;;;;;;;28.98;16.60;;;-1.90;80.60;;;;;;5036368;28;20033;-59
2023/02/07 05:08:37;;;;;;;33.58;17.40;;;-1.90;80.00;;;;;;5036504;28;20069;-58
2023/02/07 05:11:03;;;;;;;29.35;15.90;;;-2.00;80.00;;;;;;5029987;28;20056;-59
2023/02/07 05:13:29;;;;;;;28.38;16.25;;;-2.00;79.90;;;;;;5033223;28;20046;-60
2023/02/07 05:15:55;;;;;;;30.75;17.73;;;-2.10;80.00;;;;;;5031244;28;20034;-60
2023/02/07 05:18:20;;;;;;;28.40;16.50;;;-2.20;80.00;;;;;;5031868;28;20033;-59
2023/02/07 05:20:46;;;;;;;30.55;17.33;;;-2.20;80.20;;;;;;5031134;28;20045;-57
2023/02/07 05:23:12;;;;;;;26.92;16.08;;;-2.20;80.40;;;;;;5030821;28;20240;-59
2023/02/07 05:25:43;;;;;;;31.17;17.05;;;-2.20;80.20;;;;;;5030303;28;20481;-60
2023/02/07 05:28:08;;;;;;;26.95;17.02;;;-2.30;80.00;;;;;;5031304;28;20039;-59
2023/02/07 05:30:34;;;;;;;28.98;17.10;;;-2.30;79.90;;;;;;5034764;28;20041;-58
2023/02/07 05:33:03;;;;;;;33.45;17.52;;;-2.40;79.10;;;;;;5036003;28;20401;-57
2023/02/07 05:35:35;;;;;;;31.27;17.92;;;-2.50;78.80;;;;;;5036612;28;20404;-59
2023/02/07 05:38:04;;;;;;;27.73;16.70;;;-2.60;78.80;;;;;;5036169;28;20038;-59
2023/02/07 05:40:31;;;;;;;26.45;15.73;;;-2.70;79.20;;;;;;5036072;28;20560;-58
2023/02/07 05:42:56;;;;;;;31.40;17.27;;;-2.80;79.70;;;;;;5035411;28;20408;-58
2023/02/07 05:45:22;;;;;;;28.25;17.15;;;-2.80;80.20;;;;;;5038483;28;20049;-58
2023/02/07 05:47:48;;;;;;;28.60;16.25;;;-2.90;80.00;;;;;;5039818;28;20032;-58
2023/02/07 05:50:14;;;;;;;32.35;18.17;;;-3.00;80.30;;;;;;5040212;28;20463;-57
2023/02/07 05:52:39;;;;;;;32.15;17.95;;;-3.00;80.40;;;;;;5040078;28;20041;-59
2023/02/07 05:55:06;;;;;;;29.73;17.48;;;-3.00;80.40;;;;;;5040094;28;20040;-59
2023/02/07 05:57:31;;;;;;;30.58;17.70;;;-3.00;80.40;;;;;;5039536;28;20500;-59
2023/02/07 05:59:57;;;;;;;30.75;17.00;;;-3.00;80.60;;;;;;5039826;28;20038;-59
2023/02/07 06:02:23;;;;;;;27.88;16.88;;;-3.10;80.60;;;;;;5040315;28;20505;-59
2023/02/07 06:04:48;;;;;;;31.27;17.60;;;-3.10;80.70;;;;;;5039077;28;20043;-59
2023/02/07 06:07:14;;;;;;;29.30;16.98;;;-3.10;80.70;;;;;;5039551;28;20033;-59
2023/02/07 06:09:39;;;;;;;30.33;16.70;;;-3.10;80.60;;;;;;5040081;28;20491;-61
2023/02/07 06:12:05;;;;;;;30.35;17.05;;;-3.10;80.60;;;;;;5035075;28;20076;-58
2023/02/07 06:14:31;;;;;;;28.63;16.85;;;-3.10;80.60;;;;;;5039852;28;20065;-59
2023/02/07 06:16:56;;;;;;;33.05;17.58;;;-3.10;80.30;;;;;;5039348;28;20431;-60
2023/02/07 06:19:22;;;;;;;29.73;17.55;;;-3.20;80.20;;;;;;5039485;28;20039;-58
2023/02/07 06:21:47;;;;;;;30.23;17.20;;;-3.20;80.20;;;;;;5039191;28;20533;-55
2023/02/07 06:24:14;;;;;;;31.23;17.63;;;-3.30;80.20;;;;;;5039594;28;20104;-58
2023/02/07 06:26:40;;;;;;;31.10;17.65;;;-3.30;80.40;;;;;;5038799;28;20045;-58
2023/02/07 06:29:05;;;;;;;35.13;18.50;;;-3.30;80.70;;;;;;5039177;28;20049;-58
2023/02/07 06:31:31;;;;;;;34.55;18.70;;;-3.30;80.70;;;;;;5039906;28;20045;-58
2023/02/07 06:33:56;;;;;;;30.35;16.85;;;-3.30;80.60;;;;;;5039925;28;20041;-59
2023/02/07 06:36:22;;;;;;;32.85;18.65;;;-3.30;80.60;;;;;;5040037;28;20118;-56
2023/02/07 06:38:48;;;;;;;34.70;19.13;;;-3.30;80.60;;;;;;5038697;28;20041;-59
2023/02/07 06:41:13;;;;;;;33.20;17.65;;;-3.30;80.60;;;;;;5039533;28;20037;-59
2023/02/07 06:43:39;;;;;;;33.13;17.50;;;-3.40;80.50;;;;;;5039302;28;20042;-56
2023/02/07 06:46:05;;;;;;;29.95;17.17;;;-3.40;80.60;;;;;;5039384;28;20462;-56
2023/02/07 06:48:31;;;;;;;31.10;17.23;;;-3.40;80.60;;;;;;5038532;28;20060;-58
2023/02/07 06:50:57;;;;;;;32.28;17.40;;;-3.40;80.60;;;;;;5039118;28;20057;-58
2023/02/07 06:53:22;;;;;;;27.45;16.63;;;-3.40;80.60;;;;;;5039348;28;20581;-56
2023/02/07 06:55:48;;;;;;;30.42;17.10;;;-3.40;80.60;;;;;;5037472;28;20037;-59
2023/02/07 06:58:14;;;;;;;31.02;16.70;;;-3.40;80.50;;;;;;5038695;28;20045;-57
2023/02/07 07:00:39;;;;;;;28.67;16.85;;;-3.40;80.50;;;;;;5038660;28;20516;-59
2023/02/07 07:03:05;;;;;;;28.27;17.00;;;-3.40;80.90;;;;;;5038067;28;20049;-57
2023/02/07 07:05:31;;;;;;;28.35;16.42;;;-3.40;80.40;;;;;;5039601;28;20088;-55
2023/02/07 07:07:57;;;;;;;29.92;16.80;;;-3.40;80.50;;;;;;5038405;28;20762;-58
2023/02/07 07:10:23;;;;;;;28.23;16.42;;;-3.40;80.40;;;;;;5038092;28;20045;-59
2023/02/07 07:12:48;;;;;;;27.42;16.25;;;-3.40;80.40;;;;;;5035500;28;20052;-60
2023/02/07 07:15:14;;;;;;;29.00;16.25;;;-3.40;80.60;;;;;;5038541;28;20037;-59
2023/02/07 07:17:40;;;;;;;31.75;16.08;;;-3.40;80.60;;;;;;5038871;28;20497;-59
2023/02/07 07:20:07;;;;;;;30.67;15.88;;;-3.40;80.50;;;;;;5037530;28;20418;-58
2023/02/07 07:22:33;;;;;;;29.60;16.13;;;-3.40;80.50;;;;;;5038004;28;20106;-60
2023/02/07 07:24:59;;;;;;;28.25;16.73;;;-3.40;80.50;;;;;;5038933;28;20076;-58
2023/02/07 07:27:24;;;;;;;28.85;16.25;;;-3.50;80.60;;;;;;5038561;28;20501;-58
2023/02/07 07:29:50;;;;;;;33.15;17.23;;;-3.40;80.70;;;;;;5037914;28;20030;-59
2023/02/07 07:32:16;;;;;;;31.05;16.92;;;-3.50;80.70;;;;;;5038361;28;20057;-56
2023/02/07 07:34:41;;;;;;;30.75;17.60;;;-3.50;80.70;;;;;;5037365;28;20412;-57
2023/02/07 07:37:07;;;;;;;29.98;18.05;;;-3.60;80.60;;;;;;5038086;28;20108;-60
2023/02/07 07:39:33;;;;;;;29.20;16.90;;;-3.60;80.70;;;;;;5037795;28;20168;-59
2023/02/07 07:41:58;;;;;;;31.20;17.67;;;-3.60;80.90;;;;;;5037127;28;20112;-55
2023/02/07 07:44:24;;;;;;;29.50;17.00;;;-3.60;81.10;;;;;;5038581;28;20033;-58
2023/02/07 07:46:49;;;;;;;34.10;17.20;;;-3.60;81.20;;;;;;5036246;28;20115;-58
2023/02/07 07:49:15;;;;;;;30.25;16.75;;;-3.60;81.30;;;;;;5037875;28;20034;-59
2023/02/07 07:51:41;;;;;;;31.75;17.58;;;-3.50;81.60;;;;;;5037635;28;20041;-58
2023/02/07 07:54:06;;;;;;;29.90;16.55;;;-3.50;81.60;;;;;;5036372;28;20049;-59
2023/02/07 07:56:34;;;;;;;29.20;17.17;;;-3.50;81.60;;;;;;5037318;28;20048;-56
2023/02/07 07:59:00;;;;;;;33.05;18.27;;;-3.50;81.70;;;;;;5037403;28;20171;-58
2023/02/07 08:01:25;;;;;;;32.08;17.10;;;-3.50;81.90;;;;;;5037733;28;20501;-58
2023/02/07 08:03:51;;;;;;;32.28;17.85;;;-3.40;82.10;;;;;;5036847;28;20040;-58
2023/02/07 08:06:17;;;;;;;30.63;16.67;;;-3.40;82.20;;;;;;5037872;28;20409;-58
2023/02/07 08:08:42;;;;;;;30.73;16.42;;;-3.40;82.10;;;;;;5036146;28;20496;-58
2023/02/07 08:11:09;;;;;;;30.90;16.42;;;-3.40;82.20;;;;;;5033650;28;20296;-57
2023/02/07 08:13:36;;;;;;;27.80;17.08;;;-3.30;82.30;;;;;;5038176;28;20049;-58
2023/02/07 08:16:02;;;;;;;28.92;16.20;;;-3.30;82.40;;;;;;5037385;28;20057;-58
2023/02/07 08:18:28;;;;;;;34.42;17.42;;;-3.30;82.40;;;;;;5037225;28;20053;-59
2023/02/07 08:20:54;;;;;;;30.35;16.67;;;-3.30;82.50;;;;;;5036753;28;20030;-60
2023/02/07 08:23:20;;;;;;;30.83;16.80;;;-3.20;82.60;;;;;;5037201;28;20108;-60
2023/02/07 08:25:48;;;;;;;28.40;16.73;;;-3.20;82.70;;;;;;5036876;28;20176;-59
2023/02/07 08:28:14;;;;;;;30.63;16.98;;;-3.10;82.80;;;;;;5037102;28;20317;-59
2023/02/07 08:30:40;;;;;;;28.30;17.85;;;-3.10;82.90;;;;;;5036918;28;20525;-55
2023/02/07 08:33:05;;;;;;;27.83;16.55;;;-3.10;82.80;;;;;;5037131;28;20055;-59
2023/02/07 08:35:31;;;;;;;30.52;17.27;;;-3.00;82.60;;;;;;5038027;28;20114;-56
2023/02/07 08:37:57;;;;;;;27.33;17.10;;;-3.00;82.60;;;;;;5037168;28;20044;-58
2023/02/07 08:40:23;;;;;;;32.17;18.58;;;-3.00;82.60;;;;;;5037619;28;20564;-58
2023/02/07 08:42:49;;;;;;;31.02;17.17;;;-3.00;82.60;;;;;;5035904;28;20043;-58
2023/02/07 08:45:16;;;;;;;31.83;18.65;;;-2.90;82.70;;;;;;5037055;28;20033;-59
2023/02/07 08:47:42;;;;;;;30.08;17.08;;;-2.90;82.60;;;;;;5037391;28;20044;-58
2023/02/07 08:50:09;;;;;;;31.83;18.13;;;-2.80;82.60;;;;;;5036952;28;20037;-59
2023/02/07 08:52:35;;;;;;;29.38;18.13;;;-2.90;82.70;;;;;;5035971;28;20036;-58
2023/02/07 08:55:00;;;;;;;31.63;18.98;;;-2.80;82.80;;;;;;5036800;28;20029;-57
2023/02/07 08:57:26;;;;;;;34.33;19.00;;;-2.80;82.90;;;;;;5036370;28;20037;-55
2023/02/07 08:59:52;;;;;;;33.78;17.88;;;-2.80;82.90;;;;;;5036209;28;20552;-57
2023/02/07 09:02:18;;;;;;;36.75;18.08;;;-2.70;82.90;;;;;;5030158;28;20517;-58
2023/02/07 09:04:44;;;;;;;33.40;18.15;;;-2.70;83.00;;;;;;5036280;28;20037;-59
2023/02/07 09:07:11;;;;;;;31.27;18.27;;;-2.70;82.90;;;;;;5036913;28;20084;-58
2023/02/07 09:09:37;;;;;;;33.40;19.42;;;-2.70;82.90;;;;;;5037724;28;20052;-58
2023/02/07 09:12:03;;;;;;;30.25;18.33;;;-2.60;83.20;;;;;;5029598;28;20091;-58
2023/02/07 09:14:28;;;;;;;32.55;19.85;;;-2.60;83.10;;;;;;5036878;28;20057;-59
2023/02/07 09:16:54;;;;;;;36.42;19.85;;;-2.60;83.20;;;;;;5037675;28;20045;-55
2023/02/07 09:19:20;;;;;;;35.15;18.33;;;-2.60;83.20;;;;;;5036470;28;20064;-59
2023/02/07 09:21:47;;;;;;;30.55;18.33;;;-2.60;83.10;;;;;;5036572;28;20037;-59
2023/02/07 09:24:12;;;;;;;33.83;18.58;;;-2.50;83.30;;;;;;5037209;28;20037;-59
2023/02/07 09:26:38;;;;;;;33.00;19.08;;;-2.50;83.30;;;;;;5037122;28;20033;-59
2023/02/07 09:29:05;;;;;;;35.60;19.92;;;-2.40;83.40;;;;;;5035671;28;20083;-58
2023/02/07 09:31:33;;;;;;;35.72;20.42;;;-2.40;83.50;;;;;;5036484;28;20151;-58
2023/02/07 09:33:59;;;;;;;31.60;17.98;;;-2.30;83.50;;;;;;5036467;28;20172;-59
2023/02/07 09:36:29;;;;;;;35.80;20.23;;;-2.30;83.40;;;;;;5035736;28;20108;-59
2023/02/07 09:38:55;;;;;;;34.65;20.13;;;-2.20;83.50;;;;;;5036626;28;20033;-58
2023/02/07 09:41:41;;;;;;;36.05;20.35;;;-2.20;83.50;;;;;;5036983;28;20044;-59
2023/02/07 09:44:15;;;;;;;33.17;19.55;;;-2.10;83.40;;;;;;5034810;28;20382;-58
2023/02/07 09:46:51;;;;;;;38.05;19.55;;;-2.00;83.40;;;;;;5036696;28;20037;-59
2023/02/07 09:49:37;;;;;;;34.05;19.95;;;-2.00;83.30;;;;;;5036523;28;20061;-59
2023/02/07 09:52:06;;;;;;;32.90;20.02;;;-1.90;83.20;;;;;;5036535;28;20112;-58
2023/02/07 09:54:41;;;;;;;34.95;20.02;;;-1.90;83.20;;;;;;5035034;28;20036;-59
2023/02/07 09:57:17;;;;;;;36.70;20.98;;;-1.80;82.80;;;;;;5036953;28;20119;-59
2023/02/07 10:00:01;;;;;;;33.92;19.73;;;-1.70;82.60;;;;;;5036140;28;20401;-57
2023/02/07 10:02:55;;;;;;;35.75;19.48;;;-1.70;83.20;;;;;;5036471;28;20041;-59
2023/02/07 10:05:48;;;;;;;34.40;19.52;;;-1.70;82.10;;;;;;5036463;28;20041;-58
2023/02/07 10:08:16;;;;;;;33.63;19.38;;;-1.70;82.10;;;;;;5036586;28;20124;-59
2023/02/07 10:10:51;;;;;;;33.50;19.00;;;-1.60;82.00;;;;;;5027740;28;20510;-59
2023/02/07 10:13:22;;;;;;;33.25;18.95;;;-1.60;82.00;;;;;;5036360;28;20091;-59
2023/02/07 10:16:26;;;;;;;32.90;18.73;;;-1.60;82.00;;;;;;5036027;28;20434;-57
2023/02/07 10:19:03;;;;;;;37.55;20.25;;;-1.60;82.00;;;;;;5035812;28;20512;-54
2023/02/07 10:22:03;;;;;;;37.22;20.10;;;-1.60;82.00;;;;;;5036218;28;20095;-57
2023/02/07 10:24:53;;;;;;;32.97;18.35;;;-1.50;82.00;;;;;;5035660;28;20040;-59
2023/02/07 10:27:30;;;;;;;34.67;19.65;;;-1.50;82.00;;;;;;5035356;28;20044;-58
2023/02/07 10:30:17;;;;;;;33.90;19.35;;;-1.50;82.00;;;;;;5035889;28;20492;-55
2023/02/07 10:32:46;;;;;;;36.67;19.92;;;-1.50;82.00;;;;;;5038831;28;20095;-58
2023/02/07 10:35:20;;;;;;;33.70;19.60;;;-1.40;81.80;;;;;;5039605;28;20068;-58
2023/02/07 10:37:50;;;;;;;33.78;20.40;;;-1.40;81.60;;;;;;5038699;28;20457;-57
2023/02/07 10:40:32;;;;;;;33.15;19.27;;;-1.40;81.60;;;;;;5039881;28;20086;-55
2023/02/07 10:43:05;;;;;;;36.63;21.50;;;-1.40;81.60;;;;;;5039302;28;20033;-60
2023/02/07 10:45:32;;;;;;;32.63;18.90;;;-1.40;81.40;;;;;;5038785;28;20042;-57
2023/02/07 10:47:57;;;;;;;33.35;19.25;;;-1.30;81.40;;;;;;5039866;28;20091;-59
2023/02/07 10:50:27;;;;;;;33.50;19.23;;;-1.40;81.60;;;;;;5039435;28;20488;-58
2023/02/07 10:52:55;;;;;;;33.08;18.90;;;-1.30;81.80;;;;;;5038669;28;20505;-55
2023/02/07 10:55:45;;;;;;;34.00;20.40;;;-1.30;82.00;;;;;;5039262;28;20037;-57
2023/02/07 10:58:22;;;;;;;33.60;19.38;;;-1.30;81.90;;;;;;5039179;28;20056;-58
2023/02/07 11:00:52;;;;;;;33.00;18.60;;;-1.30;82.00;;;;;;5038480;28;20370;-55
2023/02/07 11:03:22;;;;;;;31.75;18.45;;;-1.20;82.00;;;;;;5039533;28;20087;-56
2023/02/07 11:06:01;;;;;;;33.53;19.67;;;-1.20;81.90;;;;;;5039294;28;20037;-56
2023/02/07 11:08:32;;;;;;;30.33;18.45;;;-1.10;81.60;;;;;;5039121;28;20037;-56
2023/02/07 11:11:16;;;;;;;38.25;21.27;;;-1.10;81.60;;;;;;5035011;28;20034;-55
2023/02/07 11:13:48;;;;;;;39.88;22.13;;;-1.00;81.80;;;;;;5039771;28;20499;-57
2023/02/07 11:16:17;;;;;;;37.97;21.13;;;-1.00;81.80;;;;;;5039801;28;20033;-58
2023/02/07 11:18:52;;;;;;;41.50;22.48;;;-0.90;81.40;;;;;;5038168;28;20111;-59
2023/02/07 11:21:39;;;;;;;36.03;20.67;;;-0.90;81.60;;;;;;5038750;28;20519;-59
2023/02/07 11:24:11;;;;;;;36.30;21.40;;;-0.80;81.80;;;;;;5039049;28;20030;-58
2023/02/07 11:26:48;;;;;;;37.65;20.55;;;-0.80;81.80;;;;;;5038106;28;20431;-58
2023/02/07 11:29:17;;;;;;;34.03;19.85;;;-0.70;81.80;;;;;;5038939;28;20522;-59
2023/02/07 11:31:45;;;;;;;30.88;19.45;;;-0.70;81.70;;;;;;5038712;28;20496;-57
2023/02/07 11:34:29;;;;;;;34.92;19.65;;;-0.60;81.50;;;;;;5038576;28;20033;-57
2023/02/07 11:37:17;;;;;;;31.48;18.75;;;-0.60;80.90;;;;;;5037716;28;20033;-58
2023/02/07 11:39:43;;;;;;;34.10;19.40;;;-0.60;81.10;;;;;;5038490;28;20037;-56
2023/02/07 11:42:22;;;;;;;32.70;20.13;;;-0.60;81.10;;;;;;5037974;28;20437;-58
2023/02/07 11:44:49;;;;;;;33.47;19.98;;;-0.50;80.90;;;;;;5037191;28;20517;-59
2023/02/07 11:47:23;;;;;;;31.48;19.23;;;-0.50;80.90;;;;;;5038077;28;20025;-58
2023/02/07 11:49:53;;;;;;;34.27;19.43;;;-0.50;81.80;;;;;;5037743;28;20025;-57
2023/02/07 11:52:20;;;;;;;33.17;20.15;;;-0.50;81.20;;;;;;5038281;28;20349;-58
2023/02/07 11:54:51;;;;;;;32.72;18.88;;;-0.40;81.20;;;;;;5038124;28;20037;-57
2023/02/07 11:57:19;;;;;;;33.15;19.02;;;-0.40;81.30;;;;;;5038711;28;20515;-58
2023/02/07 12:00:05;;;;;;;34.75;20.65;;;-0.30;81.60;;;;;;5036582;28;20040;-59
2023/02/07 12:02:32;;;;;;;31.13;18.80;;;-0.20;80.90;;;;;;5037827;28;20036;-56
2023/02/07 12:05:18;;;;;;;32.58;19.33;;;-0.20;80.70;;;;;;5037961;28;20082;-59
2023/02/07 12:07:48;;;;;;;32.30;19.77;;;-0.20;80.50;;;;;;5038027;28;20037;-59
2023/02/07 12:10:22;;;;;;;29.90;18.77;;;-0.20;80.40;;;;;;5036616;28;20037;-59
2023/02/07 12:13:03;;;;;;;31.05;19.35;;;-0.10;80.30;;;;;;5035578;28;20032;-59
2023/02/07 12:15:31;;;;;;;33.80;19.95;;;-0.10;80.60;;;;;;5038263;28;20056;-59
2023/02/07 12:18:09;;;;;;;29.13;18.80;;;-0.20;79.90;;;;;;5036503;28;20037;-59
2023/02/07 12:20:45;;;;;;;31.67;19.13;;;-0.20;80.20;;;;;;5037431;28;20033;-59
2023/02/07 12:23:38;;;;;;;33.65;19.42;;;-0.20;79.50;;;;;;5037825;28;20033;-58
2023/02/07 12:26:29;;;;;;;33.42;19.20;;;-0.30;79.70;;;;;;5035768;28;20044;-58
2023/02/07 12:29:19;;;;;;;30.20;19.38;;;-0.30;79.90;;;;;;5037184;28;20033;-59
2023/02/07 12:32:06;;;;;;;30.42;18.08;;;-0.30;80.60;;;;;;5037430;28;20034;-57
2023/02/07 12:34:47;;;;;;;31.33;19.05;;;-0.30;81.00;;;;;;5036620;28;20045;-56
2023/02/07 12:37:49;;;;;;;32.40;19.58;;;-0.20;81.10;;;;;;5038034;28;20108;-59
2023/02/07 12:40:38;;;;;;;33.60;20.35;;;-0.20;80.70;;;;;;5037556;28;20021;-55
2023/02/07 12:43:45;;;;;;;31.88;19.77;;;-0.20;80.20;;;;;;5035622;28;20045;-58